sensor_id;sensor_type;location;lat;lon;timestamp;temperature;humidity
30037;DHT22;36325;51.512;-0.382;2023-03-01T00:01:40;6.90;99.90
30037;DHT22;36325;51.512;-0.382;2023-03-01T00:04:08;6.80;99.90
30037;DHT22;36325;51.512;-0.382;2023-03-01T00:06:35;6.80;99.90
30037;DHT22;36325;51.512;-0.382;2023-03-01T00:09:02;6.80;99.90
30037;DHT22;36325;51.512;-0.382;2023-03-01T00:11:31;6.80;99.90
30037;DHT22;36325;51.512;-0.382;2023-03-01T00:14:01;6.80;99.90
30037;DHT22;36325;51.512;-0.382;2023-03-01T00:16:31;6.80;99.90
30037;DHT22;36325;51.512;-0.382;2023-03-01T00:19:00;6.80;99.90
30037;DHT22;36325;51.512;-0.382;2023-03-01T00:21:28;6.80;99.90
30037;DHT22;36325;51.512;-0.382;2023-03-01T00:23:55;6.80;99.90
30037;DHT22;36325;51.512;-0.382;2023-03-01T00:26:24;6.80;99.90
30037;DHT22;36325;51.512;-0.382;2023-03-01T00:28:52;6.80;99.90
30037;DHT22;36325;51.512;-0.382;2023-03-01T00:31:21;6.80;99.90
30037;DHT22;36325;51.512;-0.382;2023-03-01T00:33:52;6.80;99.90
30037;DHT22;36325;51.512;-0.382;2023-03-01T00:36:26;6.80;99.90
30037;DHT22;36325;51.512;-0.382;2023-03-01T00:38:55;6.80;99.90
30037;DHT22;36325;51.512;-0.382;2023-03-01T00:41:23;6.80;99.90
30037;DHT22;36325;51.512;-0.382;2023-03-01T00:43:51;6.80;99.90
30037;DHT22;36325;51.512;-0.382;2023-03-01T00:46:21;6.70;99.90
30037;DHT22;36325;51.512;-0.382;2023-03-01T00:48:48;6.70;99.90
30037;DHT22;36325;51.512;-0.382;2023-03-01T00:51:18;6.70;99.90
30037;DHT22;36325;51.512;-0.382;2023-03-01T00:53:47;6.70;99.90
30037;DHT22;36325;51.512;-0.382;2023-03-01T01:01:16;6.70;99.90
30037;DHT22;36325;51.512;-0.382;2023-03-01T01:03:51;6.70;99.90
30037;DHT22;36325;51.512;-0.382;2023-03-01T01:06:27;6.70;99.90
30037;DHT22;36325;51.512;-0.382;2023-03-01T01:08:55;6.60;99.90
30037;DHT22;36325;51.512;-0.382;2023-03-01T01:11:24;6.60;99.90
30037;DHT22;36325;51.512;-0.382;2023-03-01T01:13:52;6.60;99.90
30037;DHT22;36325;51.512;-0.382;2023-03-01T01:16:23;6.60;99.90
30037;DHT22;36325;51.512;-0.382;2023-03-01T01:18:51;6.50;99.90
30037;DHT22;36325;51.512;-0.382;2023-03-01T01:21:21;5.70;99.90
30037;DHT22;36325;51.512;-0.382;2023-03-01T01:23:50;6.50;99.90
30037;DHT22;36325;51.512;-0.382;2023-03-01T01:26:23;6.50;99.90
30037;DHT22;36325;51.512;-0.382;2023-03-01T01:28:51;6.50;99.90
30037;DHT22;36325;51.512;-0.382;2023-03-01T01:31:21;6.50;99.90
30037;DHT22;36325;51.512;-0.382;2023-03-01T01:33:54;6.50;99.90
30037;DHT22;36325;51.512;-0.382;2023-03-01T01:36:22;6.50;99.90
30037;DHT22;36325;51.512;-0.382;2023-03-01T01:38:49;6.50;99.90
30037;DHT22;36325;51.512;-0.382;2023-03-01T01:41:17;6.50;99.90
30037;DHT22;36325;51.512;-0.382;2023-03-01T01:44:09;6.50;99.90
30037;DHT22;36325;51.512;-0.382;2023-03-01T01:46:47;5.80;99.90
30037;DHT22;36325;51.512;-0.382;2023-03-01T01:49:38;6.50;99.90
30037;DHT22;36325;51.512;-0.382;2023-03-01T01:52:13;6.50;99.90
30037;DHT22;36325;51.512;-0.382;2023-03-01T01:54:51;6.50;99.90
30037;DHT22;36325;51.512;-0.382;2023-03-01T01:57:30;6.40;99.90
30037;DHT22;36325;51.512;-0.382;2023-03-01T02:00:06;6.40;99.90
30037;DHT22;36325;51.512;-0.382;2023-03-01T02:02:40;6.40;99.90
30037;DHT22;36325;51.512;-0.382;2023-03-01T02:05:20;6.40;99.90
30037;DHT22;36325;51.512;-0.382;2023-03-01T02:07:52;6.40;99.90
30037;DHT22;36325;51.512;-0.382;2023-03-01T02:10:21;6.40;99.90
30037;DHT22;36325;51.512;-0.382;2023-03-01T02:12:48;6.40;99.90
30037;DHT22;36325;51.512;-0.382;2023-03-01T02:15:15;6.40;99.90
30037;DHT22;36325;51.512;-0.382;2023-03-01T02:17:43;6.40;99.90
30037;DHT22;36325;51.512;-0.382;2023-03-01T02:22:43;6.40;99.90
30037;DHT22;36325;51.512;-0.382;2023-03-01T02:30:44;6.40;99.90
30037;DHT22;36325;51.512;-0.382;2023-03-01T02:33:32;6.40;99.90
30037;DHT22;36325;51.512;-0.382;2023-03-01T02:36:08;6.40;99.90
30037;DHT22;36325;51.512;-0.382;2023-03-01T02:38:38;6.40;99.90
30037;DHT22;36325;51.512;-0.382;2023-03-01T02:41:07;6.40;99.90
30037;DHT22;36325;51.512;-0.382;2023-03-01T02:43:35;6.40;99.90
30037;DHT22;36325;51.512;-0.382;2023-03-01T02:46:07;6.40;99.90
30037;DHT22;36325;51.512;-0.382;2023-03-01T02:48:45;6.40;99.90
30037;DHT22;36325;51.512;-0.382;2023-03-01T02:56:37;6.30;99.90
30037;DHT22;36325;51.512;-0.382;2023-03-01T03:01:33;6.40;99.90
30037;DHT22;36325;51.512;-0.382;2023-03-01T03:04:07;6.30;99.90
30037;DHT22;36325;51.512;-0.382;2023-03-01T03:06:35;6.30;99.90
30037;DHT22;36325;51.512;-0.382;2023-03-01T03:09:03;6.30;99.90
30037;DHT22;36325;51.512;-0.382;2023-03-01T03:11:31;6.30;99.90
30037;DHT22;36325;51.512;-0.382;2023-03-01T03:13:59;6.30;99.90
30037;DHT22;36325;51.512;-0.382;2023-03-01T03:16:27;6.20;99.90
30037;DHT22;36325;51.512;-0.382;2023-03-01T03:18:56;6.20;99.90
30037;DHT22;36325;51.512;-0.382;2023-03-01T03:21:32;6.30;99.90
30037;DHT22;36325;51.512;-0.382;2023-03-01T03:24:00;6.20;99.90
30037;DHT22;36325;51.512;-0.382;2023-03-01T03:26:28;6.20;99.90
30037;DHT22;36325;51.512;-0.382;2023-03-01T03:28:56;6.20;99.90
30037;DHT22;36325;51.512;-0.382;2023-03-01T03:31:24;6.10;99.90
30037;DHT22;36325;51.512;-0.382;2023-03-01T03:33:51;6.10;99.90
30037;DHT22;36325;51.512;-0.382;2023-03-01T03:36:21;6.10;99.90
30037;DHT22;36325;51.512;-0.382;2023-03-01T03:38:49;6.10;99.90
30037;DHT22;36325;51.512;-0.382;2023-03-01T03:41:17;6.10;99.90
30037;DHT22;36325;51.512;-0.382;2023-03-01T03:43:44;6.10;99.90
30037;DHT22;36325;51.512;-0.382;2023-03-01T03:46:12;6.10;99.90
30037;DHT22;36325;51.512;-0.382;2023-03-01T03:48:41;6.10;99.90
30037;DHT22;36325;51.512;-0.382;2023-03-01T03:51:13;6.10;99.90
30037;DHT22;36325;51.512;-0.382;2023-03-01T03:53:41;6.10;99.90
30037;DHT22;36325;51.512;-0.382;2023-03-01T03:58:37;6.10;99.90
30037;DHT22;36325;51.512;-0.382;2023-03-01T04:01:04;6.10;99.90
30037;DHT22;36325;51.512;-0.382;2023-03-01T04:03:32;6.00;99.90
30037;DHT22;36325;51.512;-0.382;2023-03-01T04:06:00;6.00;99.90
30037;DHT22;36325;51.512;-0.382;2023-03-01T04:08:28;6.00;99.90
30037;DHT22;36325;51.512;-0.382;2023-03-01T04:11:00;6.00;99.90
30037;DHT22;36325;51.512;-0.382;2023-03-01T04:13:48;6.00;99.90
30037;DHT22;36325;51.512;-0.382;2023-03-01T04:16:16;6.00;99.90
30037;DHT22;36325;51.512;-0.382;2023-03-01T04:18:44;6.00;99.90
30037;DHT22;36325;51.512;-0.382;2023-03-01T04:21:12;6.00;99.90
30037;DHT22;36325;51.512;-0.382;2023-03-01T04:23:40;5.90;99.90
30037;DHT22;36325;51.512;-0.382;2023-03-01T04:26:08;5.90;99.90
30037;DHT22;36325;51.512;-0.382;2023-03-01T04:28:40;5.80;99.90
30037;DHT22;36325;51.512;-0.382;2023-03-01T04:31:12;5.80;99.90
30037;DHT22;36325;51.512;-0.382;2023-03-01T04:33:42;5.80;99.90
30037;DHT22;36325;51.512;-0.382;2023-03-01T04:36:10;5.80;99.90
30037;DHT22;36325;51.512;-0.382;2023-03-01T04:38:38;5.80;99.90
30037;DHT22;36325;51.512;-0.382;2023-03-01T04:41:09;5.80;99.90
30037;DHT22;36325;51.512;-0.382;2023-03-01T04:43:37;5.80;99.90
30037;DHT22;36325;51.512;-0.382;2023-03-01T04:46:07;5.80;99.90
30037;DHT22;36325;51.512;-0.382;2023-03-01T04:48:37;5.70;99.90
30037;DHT22;36325;51.512;-0.382;2023-03-01T04:51:05;5.80;99.90
30037;DHT22;36325;51.512;-0.382;2023-03-01T04:53:33;5.80;99.90
30037;DHT22;36325;51.512;-0.382;2023-03-01T04:56:03;5.80;99.90
30037;DHT22;36325;51.512;-0.382;2023-03-01T04:58:30;5.80;99.90
30037;DHT22;36325;51.512;-0.382;2023-03-01T05:00:58;5.80;99.90
30037;DHT22;36325;51.512;-0.382;2023-03-01T05:03:25;5.80;99.90
30037;DHT22;36325;51.512;-0.382;2023-03-01T05:05:53;5.90;99.90
30037;DHT22;36325;51.512;-0.382;2023-03-01T05:08:20;5.90;99.90
30037;DHT22;36325;51.512;-0.382;2023-03-01T05:10:52;5.90;99.90
30037;DHT22;36325;51.512;-0.382;2023-03-01T05:13:21;5.90;99.90
30037;DHT22;36325;51.512;-0.382;2023-03-01T05:15:54;5.80;99.90
30037;DHT22;36325;51.512;-0.382;2023-03-01T05:18:25;5.80;99.90
30037;DHT22;36325;51.512;-0.382;2023-03-01T05:21:01;5.90;99.90
30037;DHT22;36325;51.512;-0.382;2023-03-01T05:26:00;5.90;99.90
30037;DHT22;36325;51.512;-0.382;2023-03-01T05:28:28;5.90;99.90
30037;DHT22;36325;51.512;-0.382;2023-03-01T05:30:55;5.90;99.90
30037;DHT22;36325;51.512;-0.382;2023-03-01T05:33:24;5.80;99.90
30037;DHT22;36325;51.512;-0.382;2023-03-01T05:35:51;5.90;99.90
30037;DHT22;36325;51.512;-0.382;2023-03-01T05:38:20;5.90;99.90
30037;DHT22;36325;51.512;-0.382;2023-03-01T05:40:49;5.90;99.90
30037;DHT22;36325;51.512;-0.382;2023-03-01T05:43:17;5.90;99.90
30037;DHT22;36325;51.512;-0.382;2023-03-01T05:45:45;5.90;99.90
30037;DHT22;36325;51.512;-0.382;2023-03-01T05:48:12;5.90;99.90
30037;DHT22;36325;51.512;-0.382;2023-03-01T05:50:44;5.90;99.90
30037;DHT22;36325;51.512;-0.382;2023-03-01T05:53:18;5.90;99.90
30037;DHT22;36325;51.512;-0.382;2023-03-01T05:55:46;5.90;99.90
30037;DHT22;36325;51.512;-0.382;2023-03-01T05:58:16;5.90;99.90
30037;DHT22;36325;51.512;-0.382;2023-03-01T06:00:45;5.90;99.90
30037;DHT22;36325;51.512;-0.382;2023-03-01T06:03:15;5.90;99.90
30037;DHT22;36325;51.512;-0.382;2023-03-01T06:05:43;5.90;99.90
30037;DHT22;36325;51.512;-0.382;2023-03-01T06:08:12;6.00;99.90
30037;DHT22;36325;51.512;-0.382;2023-03-01T06:10:39;5.90;99.90
30037;DHT22;36325;51.512;-0.382;2023-03-01T06:13:07;6.00;99.90
30037;DHT22;36325;51.512;-0.382;2023-03-01T06:18:02;5.90;99.90
30037;DHT22;36325;51.512;-0.382;2023-03-01T06:20:30;5.90;99.90
30037;DHT22;36325;51.512;-0.382;2023-03-01T06:22:57;6.00;99.90
30037;DHT22;36325;51.512;-0.382;2023-03-01T06:25:25;6.00;99.90
30037;DHT22;36325;51.512;-0.382;2023-03-01T06:27:53;6.00;99.90
30037;DHT22;36325;51.512;-0.382;2023-03-01T06:30:22;6.00;99.90
30037;DHT22;36325;51.512;-0.382;2023-03-01T06:32:49;6.00;99.90
30037;DHT22;36325;51.512;-0.382;2023-03-01T06:35:18;6.00;99.90
30037;DHT22;36325;51.512;-0.382;2023-03-01T06:37:47;6.00;99.90
30037;DHT22;36325;51.512;-0.382;2023-03-01T06:40:15;6.00;99.90
30037;DHT22;36325;51.512;-0.382;2023-03-01T06:42:47;6.00;99.90
30037;DHT22;36325;51.512;-0.382;2023-03-01T06:45:17;6.00;99.90
30037;DHT22;36325;51.512;-0.382;2023-03-01T06:47:44;6.00;99.90
30037;DHT22;36325;51.512;-0.382;2023-03-01T06:50:12;6.10;99.90
30037;DHT22;36325;51.512;-0.382;2023-03-01T06:52:40;6.00;99.90
30037;DHT22;36325;51.512;-0.382;2023-03-01T06:55:08;6.00;99.90
30037;DHT22;36325;51.512;-0.382;2023-03-01T06:57:35;6.00;99.90
30037;DHT22;36325;51.512;-0.382;2023-03-01T07:00:06;6.00;99.90
30037;DHT22;36325;51.512;-0.382;2023-03-01T07:02:34;6.10;99.90
30037;DHT22;36325;51.512;-0.382;2023-03-01T07:09:56;6.10;99.90
30037;DHT22;36325;51.512;-0.382;2023-03-01T07:12:23;6.20;99.90
30037;DHT22;36325;51.512;-0.382;2023-03-01T07:14:51;6.20;99.90
30037;DHT22;36325;51.512;-0.382;2023-03-01T07:17:18;6.10;99.90
30037;DHT22;36325;51.512;-0.382;2023-03-01T07:22:13;6.20;99.90
30037;DHT22;36325;51.512;-0.382;2023-03-01T07:24:41;6.20;99.90
30037;DHT22;36325;51.512;-0.382;2023-03-01T07:29:39;6.20;99.90
30037;DHT22;36325;51.512;-0.382;2023-03-01T07:32:10;5.80;99.90
30037;DHT22;36325;51.512;-0.382;2023-03-01T07:34:38;6.20;99.90
30037;DHT22;36325;51.512;-0.382;2023-03-01T07:37:05;6.20;99.90
30037;DHT22;36325;51.512;-0.382;2023-03-01T07:39:32;6.20;99.90
30037;DHT22;36325;51.512;-0.382;2023-03-01T07:44:29;6.20;99.90
30037;DHT22;36325;51.512;-0.382;2023-03-01T07:46:58;6.20;99.90
30037;DHT22;36325;51.512;-0.382;2023-03-01T07:49:29;6.30;99.90
30037;DHT22;36325;51.512;-0.382;2023-03-01T07:54:24;6.30;99.90
30037;DHT22;36325;51.512;-0.382;2023-03-01T07:56:53;6.30;99.90
30037;DHT22;36325;51.512;-0.382;2023-03-01T07:59:21;6.40;99.90
30037;DHT22;36325;51.512;-0.382;2023-03-01T08:01:50;6.40;99.90
30037;DHT22;36325;51.512;-0.382;2023-03-01T08:06:45;6.50;99.90
30037;DHT22;36325;51.512;-0.382;2023-03-01T08:09:14;6.60;99.90
30037;DHT22;36325;51.512;-0.382;2023-03-01T08:11:43;6.70;99.90
30037;DHT22;36325;51.512;-0.382;2023-03-01T08:14:13;6.70;99.90
30037;DHT22;36325;51.512;-0.382;2023-03-01T08:16:40;7.30;99.90
30037;DHT22;36325;51.512;-0.382;2023-03-01T08:19:09;6.80;99.90
30037;DHT22;36325;51.512;-0.382;2023-03-01T08:21:37;6.80;99.90
30037;DHT22;36325;51.512;-0.382;2023-03-01T08:24:05;6.80;99.90
30037;DHT22;36325;51.512;-0.382;2023-03-01T08:26:33;7.00;99.90
30037;DHT22;36325;51.512;-0.382;2023-03-01T08:31:35;7.90;99.90
30037;DHT22;36325;51.512;-0.382;2023-03-01T08:34:07;8.00;99.90
30037;DHT22;36325;51.512;-0.382;2023-03-01T08:36:37;8.70;99.90
30037;DHT22;36325;51.512;-0.382;2023-03-01T08:39:08;8.70;99.90
30037;DHT22;36325;51.512;-0.382;2023-03-01T08:41:36;8.60;99.90
30037;DHT22;36325;51.512;-0.382;2023-03-01T08:44:04;8.50;99.90
30037;DHT22;36325;51.512;-0.382;2023-03-01T08:46:36;8.60;99.90
30037;DHT22;36325;51.512;-0.382;2023-03-01T08:49:05;8.90;99.90
30037;DHT22;36325;51.512;-0.382;2023-03-01T08:51:34;8.90;99.90
30037;DHT22;36325;51.512;-0.382;2023-03-01T08:54:17;9.50;99.90
30037;DHT22;36325;51.512;-0.382;2023-03-01T08:56:45;9.60;99.90
30037;DHT22;36325;51.512;-0.382;2023-03-01T08:59:14;9.80;99.90
30037;DHT22;36325;51.512;-0.382;2023-03-01T09:01:42;10.00;99.90
30037;DHT22;36325;51.512;-0.382;2023-03-01T09:04:14;10.10;99.90
30037;DHT22;36325;51.512;-0.382;2023-03-01T09:06:42;10.40;99.90
30037;DHT22;36325;51.512;-0.382;2023-03-01T09:09:16;10.70;99.90
30037;DHT22;36325;51.512;-0.382;2023-03-01T09:11:44;11.20;99.90
30037;DHT22;36325;51.512;-0.382;2023-03-01T09:14:13;11.60;99.90
30037;DHT22;36325;51.512;-0.382;2023-03-01T09:16:41;11.30;99.90
30037;DHT22;36325;51.512;-0.382;2023-03-01T09:19:09;11.30;99.90
30037;DHT22;36325;51.512;-0.382;2023-03-01T09:21:37;11.20;99.90
30037;DHT22;36325;51.512;-0.382;2023-03-01T09:24:12;11.10;99.90
30037;DHT22;36325;51.512;-0.382;2023-03-01T09:26:41;10.80;99.90
30037;DHT22;36325;51.512;-0.382;2023-03-01T09:29:09;10.70;99.90
30037;DHT22;36325;51.512;-0.382;2023-03-01T09:31:36;10.50;99.90
30037;DHT22;36325;51.512;-0.382;2023-03-01T09:34:04;10.20;99.90
30037;DHT22;36325;51.512;-0.382;2023-03-01T09:36:32;9.80;99.90
30037;DHT22;36325;51.512;-0.382;2023-03-01T09:39:01;9.60;99.90
30037;DHT22;36325;51.512;-0.382;2023-03-01T09:44:21;9.20;99.90
30037;DHT22;36325;51.512;-0.382;2023-03-01T09:46:51;9.20;99.90
30037;DHT22;36325;51.512;-0.382;2023-03-01T09:49:25;9.10;99.90
30037;DHT22;36325;51.512;-0.382;2023-03-01T09:54:24;8.90;99.90
30037;DHT22;36325;51.512;-0.382;2023-03-01T10:05:05;9.30;99.90
30037;DHT22;36325;51.512;-0.382;2023-03-01T10:08:13;9.30;99.90
30037;DHT22;36325;51.512;-0.382;2023-03-01T10:10:44;9.50;99.90
30037;DHT22;36325;51.512;-0.382;2023-03-01T10:13:21;9.60;99.90
30037;DHT22;36325;51.512;-0.382;2023-03-01T10:18:55;9.90;99.90
30037;DHT22;36325;51.512;-0.382;2023-03-01T10:21:26;10.00;99.90
30037;DHT22;36325;51.512;-0.382;2023-03-01T10:24:10;10.20;99.90
30037;DHT22;36325;51.512;-0.382;2023-03-01T10:27:01;10.40;99.90
30037;DHT22;36325;51.512;-0.382;2023-03-01T10:29:50;10.40;99.90
30037;DHT22;36325;51.512;-0.382;2023-03-01T10:32:22;10.10;99.90
30037;DHT22;36325;51.512;-0.382;2023-03-01T10:34:50;10.00;99.90
30037;DHT22;36325;51.512;-0.382;2023-03-01T10:37:20;9.90;99.90
30037;DHT22;36325;51.512;-0.382;2023-03-01T10:40:03;9.90;99.90
30037;DHT22;36325;51.512;-0.382;2023-03-01T10:42:45;9.80;99.90
30037;DHT22;36325;51.512;-0.382;2023-03-01T10:45:30;9.70;99.90
30037;DHT22;36325;51.512;-0.382;2023-03-01T10:48:14;9.60;99.90
30037;DHT22;36325;51.512;-0.382;2023-03-01T10:50:47;9.60;99.90
30037;DHT22;36325;51.512;-0.382;2023-03-01T10:53:27;9.40;99.90
30037;DHT22;36325;51.512;-0.382;2023-03-01T10:56:10;9.30;99.90
30037;DHT22;36325;51.512;-0.382;2023-03-01T10:59:03;9.20;99.90
30037;DHT22;36325;51.512;-0.382;2023-03-01T11:01:35;9.10;99.90
30037;DHT22;36325;51.512;-0.382;2023-03-01T11:04:12;9.00;99.90
30037;DHT22;36325;51.512;-0.382;2023-03-01T11:06:41;9.00;99.90
30037;DHT22;36325;51.512;-0.382;2023-03-01T11:09:26;9.00;99.90
30037;DHT22;36325;51.512;-0.382;2023-03-01T11:12:00;9.00;99.90
30037;DHT22;36325;51.512;-0.382;2023-03-01T11:14:35;9.00;99.90
30037;DHT22;36325;51.512;-0.382;2023-03-01T11:17:17;9.10;99.90
30037;DHT22;36325;51.512;-0.382;2023-03-01T11:20:00;10.00;99.90
30037;DHT22;36325;51.512;-0.382;2023-03-01T11:22:29;11.40;99.90
30037;DHT22;36325;51.512;-0.382;2023-03-01T11:24:58;14.60;99.90
30037;DHT22;36325;51.512;-0.382;2023-03-01T11:27:39;13.10;99.90
30037;DHT22;36325;51.512;-0.382;2023-03-01T11:30:24;13.10;99.90
30037;DHT22;36325;51.512;-0.382;2023-03-01T11:35:41;12.70;99.90
30037;DHT22;36325;51.512;-0.382;2023-03-01T12:06:47;10.00;99.90
30037;DHT22;36325;51.512;-0.382;2023-03-01T12:18:12;10.90;99.90
30037;DHT22;36325;51.512;-0.382;2023-03-01T12:29:25;10.90;99.90
30037;DHT22;36325;51.512;-0.382;2023-03-01T12:37:47;10.20;99.90
30037;DHT22;36325;51.512;-0.382;2023-03-01T12:46:21;9.90;99.90
30037;DHT22;36325;51.512;-0.382;2023-03-01T12:49:08;10.20;99.90
30037;DHT22;36325;51.512;-0.382;2023-03-01T12:51:38;10.60;99.90
30037;DHT22;36325;51.512;-0.382;2023-03-01T12:54:27;11.30;99.90
30037;DHT22;36325;51.512;-0.382;2023-03-01T12:56:57;11.40;99.90
30037;DHT22;36325;51.512;-0.382;2023-03-01T12:59:37;11.60;99.90
30037;DHT22;36325;51.512;-0.382;2023-03-01T13:05:18;11.60;99.90
30037;DHT22;36325;51.512;-0.382;2023-03-01T13:13:14;11.40;99.90
30037;DHT22;36325;51.512;-0.382;2023-03-01T13:15:45;11.50;99.90
30037;DHT22;36325;51.512;-0.382;2023-03-01T13:20:57;11.00;99.90
30037;DHT22;36325;51.512;-0.382;2023-03-01T13:23:26;10.90;99.90
30037;DHT22;36325;51.512;-0.382;2023-03-01T13:26:14;10.70;99.90
30037;DHT22;36325;51.512;-0.382;2023-03-01T13:28:57;10.50;99.90
30037;DHT22;36325;51.512;-0.382;2023-03-01T13:34:40;10.30;99.90
30037;DHT22;36325;51.512;-0.382;2023-03-01T13:37:45;10.20;99.90
30037;DHT22;36325;51.512;-0.382;2023-03-01T13:42:47;10.00;99.90
30037;DHT22;36325;51.512;-0.382;2023-03-01T13:45:43;10.00;99.90
30037;DHT22;36325;51.512;-0.382;2023-03-01T13:48:24;10.00;99.90
30037;DHT22;36325;51.512;-0.382;2023-03-01T13:50:59;10.00;99.90
30037;DHT22;36325;51.512;-0.382;2023-03-01T13:53:33;10.00;99.90
30037;DHT22;36325;51.512;-0.382;2023-03-01T13:56:11;9.90;99.90
30037;DHT22;36325;51.512;-0.382;2023-03-01T13:58:55;9.90;99.90
30037;DHT22;36325;51.512;-0.382;2023-03-01T14:01:30;9.80;99.90
30037;DHT22;36325;51.512;-0.382;2023-03-01T14:03:59;9.80;99.90
30037;DHT22;36325;51.512;-0.382;2023-03-01T14:06:31;9.70;99.90
30037;DHT22;36325;51.512;-0.382;2023-03-01T14:09:29;9.60;99.90
30037;DHT22;36325;51.512;-0.382;2023-03-01T14:15:04;9.60;99.90
30037;DHT22;36325;51.512;-0.382;2023-03-01T14:20:26;9.90;99.90
30037;DHT22;36325;51.512;-0.382;2023-03-01T14:22:59;10.00;99.90
30037;DHT22;36325;51.512;-0.382;2023-03-01T14:25:33;10.20;99.90
30037;DHT22;36325;51.512;-0.382;2023-03-01T14:28:21;10.20;99.90
30037;DHT22;36325;51.512;-0.382;2023-03-01T14:30:52;10.30;99.90
30037;DHT22;36325;51.512;-0.382;2023-03-01T14:33:34;10.30;99.90
30037;DHT22;36325;51.512;-0.382;2023-03-01T14:36:09;10.40;99.90
30037;DHT22;36325;51.512;-0.382;2023-03-01T14:38:40;10.40;99.90
30037;DHT22;36325;51.512;-0.382;2023-03-01T14:41:17;10.40;99.90
30037;DHT22;36325;51.512;-0.382;2023-03-01T14:43:52;10.30;99.90
30037;DHT22;36325;51.512;-0.382;2023-03-01T14:46:30;10.20;99.90
30037;DHT22;36325;51.512;-0.382;2023-03-01T14:51:38;9.90;99.90
30037;DHT22;36325;51.512;-0.382;2023-03-01T14:54:21;9.80;99.90
30037;DHT22;36325;51.512;-0.382;2023-03-01T14:56:51;9.80;99.90
30037;DHT22;36325;51.512;-0.382;2023-03-01T14:59:23;9.80;99.90
30037;DHT22;36325;51.512;-0.382;2023-03-01T15:01:51;9.80;99.90
30037;DHT22;36325;51.512;-0.382;2023-03-01T15:04:21;9.90;99.90
30037;DHT22;36325;51.512;-0.382;2023-03-01T15:06:54;9.90;99.90
30037;DHT22;36325;51.512;-0.382;2023-03-01T15:09:22;10.00;99.90
30037;DHT22;36325;51.512;-0.382;2023-03-01T15:11:50;10.00;99.90
30037;DHT22;36325;51.512;-0.382;2023-03-01T15:14:41;10.00;99.90
30037;DHT22;36325;51.512;-0.382;2023-03-01T15:17:33;9.90;99.90
30037;DHT22;36325;51.512;-0.382;2023-03-01T15:20:13;9.90;99.90
30037;DHT22;36325;51.512;-0.382;2023-03-01T15:22:44;9.90;99.90
30037;DHT22;36325;51.512;-0.382;2023-03-01T15:25:19;9.80;99.90
30037;DHT22;36325;51.512;-0.382;2023-03-01T15:27:48;9.80;99.90
30037;DHT22;36325;51.512;-0.382;2023-03-01T15:30:25;9.90;99.90
30037;DHT22;36325;51.512;-0.382;2023-03-01T15:33:17;9.90;99.90
30037;DHT22;36325;51.512;-0.382;2023-03-01T15:35:49;10.20;99.90
30037;DHT22;36325;51.512;-0.382;2023-03-01T15:40:54;10.60;99.90
30037;DHT22;36325;51.512;-0.382;2023-03-01T15:46:37;13.80;99.90
30037;DHT22;36325;51.512;-0.382;2023-03-01T15:52:32;16.10;99.90
30037;DHT22;36325;51.512;-0.382;2023-03-01T15:55:14;18.00;99.90
30037;DHT22;36325;51.512;-0.382;2023-03-01T15:57:41;19.20;99.90
30037;DHT22;36325;51.512;-0.382;2023-03-01T16:00:11;20.10;99.90
30037;DHT22;36325;51.512;-0.382;2023-03-01T16:02:41;19.10;99.90
30037;DHT22;36325;51.512;-0.382;2023-03-01T16:05:31;19.00;99.90
30037;DHT22;36325;51.512;-0.382;2023-03-01T16:07:58;17.70;99.90
30037;DHT22;36325;51.512;-0.382;2023-03-01T16:10:27;16.10;99.90
30037;DHT22;36325;51.512;-0.382;2023-03-01T16:12:55;15.30;99.90
30037;DHT22;36325;51.512;-0.382;2023-03-01T16:15:25;15.10;99.90
30037;DHT22;36325;51.512;-0.382;2023-03-01T16:17:53;15.90;99.90
30037;DHT22;36325;51.512;-0.382;2023-03-01T16:20:24;16.30;99.90
30037;DHT22;36325;51.512;-0.382;2023-03-01T16:23:00;17.10;99.90
30037;DHT22;36325;51.512;-0.382;2023-03-01T16:25:29;17.50;99.90
30037;DHT22;36325;51.512;-0.382;2023-03-01T16:32:53;15.60;99.90
30037;DHT22;36325;51.512;-0.382;2023-03-01T16:35:21;14.80;99.90
30037;DHT22;36325;51.512;-0.382;2023-03-01T16:37:50;13.20;99.90
30037;DHT22;36325;51.512;-0.382;2023-03-01T16:40:22;13.00;99.90
30037;DHT22;36325;51.512;-0.382;2023-03-01T16:42:50;12.40;99.90
30037;DHT22;36325;51.512;-0.382;2023-03-01T16:45:17;11.90;99.90
30037;DHT22;36325;51.512;-0.382;2023-03-01T16:47:52;11.50;99.90
30037;DHT22;36325;51.512;-0.382;2023-03-01T16:50:22;11.20;99.90
30037;DHT22;36325;51.512;-0.382;2023-03-01T16:57:45;10.40;99.90
30037;DHT22;36325;51.512;-0.382;2023-03-01T17:00:12;10.20;99.90
30037;DHT22;36325;51.512;-0.382;2023-03-01T17:02:41;9.70;99.90
30037;DHT22;36325;51.512;-0.382;2023-03-01T17:05:09;9.70;99.90
30037;DHT22;36325;51.512;-0.382;2023-03-01T17:07:39;9.60;99.90
30037;DHT22;36325;51.512;-0.382;2023-03-01T17:10:08;9.50;99.90
30037;DHT22;36325;51.512;-0.382;2023-03-01T17:12:36;9.50;99.90
30037;DHT22;36325;51.512;-0.382;2023-03-01T17:15:05;9.40;99.90
30037;DHT22;36325;51.512;-0.382;2023-03-01T17:17:32;9.40;99.90
30037;DHT22;36325;51.512;-0.382;2023-03-01T17:20:02;9.40;99.90
30037;DHT22;36325;51.512;-0.382;2023-03-01T17:44:40;9.20;99.90
30037;DHT22;36325;51.512;-0.382;2023-03-01T17:49:36;9.20;99.90
30037;DHT22;36325;51.512;-0.382;2023-03-01T17:52:03;9.20;99.90
30037;DHT22;36325;51.512;-0.382;2023-03-01T17:54:31;9.10;99.90
30037;DHT22;36325;51.512;-0.382;2023-03-01T17:56:59;9.10;99.90
30037;DHT22;36325;51.512;-0.382;2023-03-01T17:59:26;9.00;99.90
30037;DHT22;36325;51.512;-0.382;2023-03-01T18:04:27;8.90;99.90
30037;DHT22;36325;51.512;-0.382;2023-03-01T18:06:55;8.80;99.90
30037;DHT22;36325;51.512;-0.382;2023-03-01T18:09:26;8.80;99.90
30037;DHT22;36325;51.512;-0.382;2023-03-01T18:11:54;8.80;99.90
30037;DHT22;36325;51.512;-0.382;2023-03-01T18:19:16;8.80;99.90
30037;DHT22;36325;51.512;-0.382;2023-03-01T18:21:51;8.80;99.90
30037;DHT22;36325;51.512;-0.382;2023-03-01T18:31:41;8.70;99.90
30037;DHT22;36325;51.512;-0.382;2023-03-01T18:34:10;8.70;99.90
30037;DHT22;36325;51.512;-0.382;2023-03-01T18:36:37;8.70;99.90
30037;DHT22;36325;51.512;-0.382;2023-03-01T18:39:07;8.70;99.90
30037;DHT22;36325;51.512;-0.382;2023-03-01T18:44:03;8.60;99.90
30037;DHT22;36325;51.512;-0.382;2023-03-01T18:46:31;8.50;99.90
30037;DHT22;36325;51.512;-0.382;2023-03-01T18:51:30;8.50;99.90
30037;DHT22;36325;51.512;-0.382;2023-03-01T18:53:58;8.50;99.90
30037;DHT22;36325;51.512;-0.382;2023-03-01T19:01:24;8.50;99.90
30037;DHT22;36325;51.512;-0.382;2023-03-01T19:03:52;8.50;99.90
30037;DHT22;36325;51.512;-0.382;2023-03-01T19:06:20;8.50;99.90
30037;DHT22;36325;51.512;-0.382;2023-03-01T19:08:48;8.40;99.90
30037;DHT22;36325;51.512;-0.382;2023-03-01T19:11:16;8.50;99.90
30037;DHT22;36325;51.512;-0.382;2023-03-01T19:16:59;8.50;99.90
30037;DHT22;36325;51.512;-0.382;2023-03-01T19:22:46;8.50;99.90
30037;DHT22;36325;51.512;-0.382;2023-03-01T19:25:13;8.40;99.90
30037;DHT22;36325;51.512;-0.382;2023-03-01T19:27:40;8.40;99.90
30037;DHT22;36325;51.512;-0.382;2023-03-01T19:30:08;8.40;99.90
30037;DHT22;36325;51.512;-0.382;2023-03-01T19:32:36;8.40;99.90
30037;DHT22;36325;51.512;-0.382;2023-03-01T19:35:04;8.40;99.90
30037;DHT22;36325;51.512;-0.382;2023-03-01T19:37:33;8.30;99.90
30037;DHT22;36325;51.512;-0.382;2023-03-01T19:40:01;8.40;99.90